createdAt,value
2017-11-18T00:00:40.851Z,1006.63
2017-11-18T00:01:40.841Z,1006.68
2017-11-18T00:02:40.888Z,1006.64
2017-11-18T00:03:40.829Z,1006.61
2017-11-18T00:04:40.828Z,1006.55
2017-11-18T00:05:40.818Z,1006.59
2017-11-18T00:06:40.834Z,1006.51
2017-11-18T00:07:40.806Z,1006.51
2017-11-18T00:08:40.833Z,1006.49
2017-11-18T00:09:40.793Z,1006.47
2017-11-18T00:10:40.792Z,1006.48
2017-11-18T00:11:40.781Z,1006.46
2017-11-18T00:12:40.774Z,1006.48
2017-11-18T00:13:40.771Z,1006.44
2017-11-18T00:14:40.764Z,1006.47
2017-11-18T00:15:40.757Z,1006.46
2017-11-18T00:16:40.755Z,1006.45
2017-11-18T00:17:40.745Z,1006.46
2017-11-18T00:18:41.773Z,1006.48
2017-11-18T00:19:40.733Z,1006.49
2017-11-18T00:20:40.726Z,1006.51
2017-11-18T00:21:40.721Z,1006.51
2017-11-18T00:22:40.720Z,1006.60
2017-11-18T00:23:40.707Z,1006.63
2017-11-18T00:24:40.705Z,1006.60
2017-11-18T00:25:40.698Z,1006.60
2017-11-18T00:26:40.690Z,1006.64
2017-11-18T00:27:40.684Z,1006.62
2017-11-18T00:28:40.681Z,1006.67
2017-11-18T00:29:40.673Z,1006.61
2017-11-18T00:30:40.675Z,1006.59
2017-11-18T00:31:40.658Z,1006.56
2017-11-18T00:32:40.754Z,1006.50
2017-11-18T00:33:40.653Z,1006.59
2017-11-18T00:34:40.641Z,1006.55
2017-11-18T00:35:40.636Z,1006.52
2017-11-18T00:36:40.678Z,1006.52
2017-11-18T00:37:40.622Z,1006.53
2017-11-18T00:38:40.617Z,1006.47
2017-11-18T00:39:40.608Z,1006.50
2017-11-18T00:40:40.605Z,1006.48
2017-11-18T00:41:40.598Z,1006.53
2017-11-18T00:42:40.599Z,1006.58
2017-11-18T00:43:40.584Z,1006.55
2017-11-18T00:44:40.983Z,1006.62
2017-11-18T00:45:40.572Z,1006.66
2017-11-18T00:46:40.565Z,1006.71
2017-11-18T00:47:40.561Z,1006.70
2017-11-18T00:48:40.558Z,1006.73
2017-11-18T00:49:40.547Z,1006.73
2017-11-18T00:50:40.545Z,1006.76
2017-11-18T00:51:40.533Z,1006.80
2017-11-18T00:52:40.530Z,1006.80
2017-11-18T00:53:40.533Z,1006.80
2017-11-18T00:54:40.514Z,1006.82
2017-11-18T00:55:40.512Z,1006.80
2017-11-18T00:56:40.504Z,1006.79
2017-11-18T00:57:40.498Z,1006.77
2017-11-18T00:58:40.489Z,1006.77
2017-11-18T00:59:40.663Z,1006.73
2017-11-18T01:00:40.754Z,1006.77
2017-11-18T01:01:40.486Z,1006.71
2017-11-18T01:02:40.566Z,1006.73
2017-11-18T01:03:40.672Z,1006.73
2017-11-18T01:04:40.463Z,1006.68
2017-11-18T01:05:40.446Z,1006.63
2017-11-18T01:06:40.451Z,1006.62
2017-11-18T01:07:40.429Z,1006.57
2017-11-18T01:08:40.423Z,1006.61
2017-11-18T01:09:40.429Z,1006.65
2017-11-18T01:10:40.427Z,1006.67
2017-11-18T01:11:40.408Z,1006.69
2017-11-18T01:12:40.400Z,1006.71
2017-11-18T01:13:40.394Z,1006.71
2017-11-18T01:14:40.382Z,1006.69
2017-11-18T01:15:40.383Z,1006.67
2017-11-18T01:16:40.371Z,1006.62
2017-11-18T01:17:40.367Z,1006.67
2017-11-18T01:18:40.362Z,1006.61
2017-11-18T01:19:40.351Z,1006.61
2017-11-18T01:20:40.348Z,1006.61
2017-11-18T01:21:40.341Z,1006.63
2017-11-18T01:22:40.338Z,1006.59
2017-11-18T01:23:40.326Z,1006.59
2017-11-18T01:24:40.321Z,1006.55
2017-11-18T01:25:40.312Z,1006.52
2017-11-18T01:26:40.309Z,1006.47
2017-11-18T01:27:40.305Z,1006.50
2017-11-18T01:28:40.292Z,1006.47
2017-11-18T01:29:40.295Z,1006.50
2017-11-18T01:30:40.285Z,1006.50
2017-11-18T01:31:40.271Z,1006.46
2017-11-18T01:32:40.264Z,1006.46
2017-11-18T01:33:40.259Z,1006.45
2017-11-18T01:34:40.263Z,1006.46
2017-11-18T01:35:40.245Z,1006.40
2017-11-18T01:36:40.256Z,1006.38
2017-11-18T01:37:40.235Z,1006.38
2017-11-18T01:38:40.245Z,1006.38
2017-11-18T01:39:40.220Z,1006.39
2017-11-18T01:40:40.220Z,1006.38
2017-11-18T01:41:40.207Z,1006.42
2017-11-18T01:42:40.199Z,1006.42
2017-11-18T01:43:40.200Z,1006.37
2017-11-18T01:44:40.184Z,1006.40
2017-11-18T01:45:40.178Z,1006.46
2017-11-18T01:46:40.182Z,1006.43
2017-11-18T01:47:40.168Z,1006.45
2017-11-18T01:48:40.158Z,1006.42
2017-11-18T01:49:40.151Z,1006.41
2017-11-18T01:50:40.145Z,1006.45
2017-11-18T01:51:40.139Z,1006.46
2017-11-18T01:52:40.131Z,1006.44
2017-11-18T01:53:40.126Z,1006.43
2017-11-18T01:54:40.122Z,1006.45
2017-11-18T01:55:40.111Z,1006.44
2017-11-18T01:56:40.104Z,1006.46
2017-11-18T01:57:40.098Z,1006.43
2017-11-18T01:58:40.091Z,1006.47
2017-11-18T01:59:40.088Z,1006.46
2017-11-18T02:00:40.077Z,1006.49
2017-11-18T02:01:40.069Z,1006.50
2017-11-18T02:02:40.067Z,1006.49
2017-11-18T02:03:40.057Z,1006.49
2017-11-18T02:04:40.049Z,1006.42
2017-11-18T02:05:40.042Z,1006.37
2017-11-18T02:06:40.036Z,1006.40
2017-11-18T02:07:40.032Z,1006.34
2017-11-18T02:08:40.022Z,1006.35
2017-11-18T02:09:40.015Z,1006.28
2017-11-18T02:10:40.007Z,1006.21
2017-11-18T02:11:40.000Z,1006.25
2017-11-18T02:12:40.003Z,1006.21
2017-11-18T02:13:39.986Z,1006.17
2017-11-18T02:14:39.980Z,1006.15
2017-11-18T02:15:39.979Z,1006.18
2017-11-18T02:16:40.192Z,1006.21
2017-11-18T02:17:39.958Z,1006.18
2017-11-18T02:18:39.953Z,1006.22
2017-11-18T02:19:39.947Z,1006.23
2017-11-18T02:20:39.937Z,1006.23
2017-11-18T02:21:39.930Z,1006.20
2017-11-18T02:22:39.926Z,1006.20
2017-11-18T02:23:39.916Z,1006.21
2017-11-18T02:24:39.909Z,1006.17
2017-11-18T02:25:39.906Z,1006.20
2017-11-18T02:26:39.895Z,1006.22
2017-11-18T02:27:39.893Z,1006.20
2017-11-18T02:28:39.880Z,1006.19
2017-11-18T02:29:39.884Z,1006.13
2017-11-18T02:30:39.867Z,1006.18
2017-11-18T02:31:39.861Z,1006.09
2017-11-18T02:32:39.857Z,1006.12
2017-11-18T02:33:39.846Z,1006.07
2017-11-18T02:34:39.839Z,1006.05
2017-11-18T02:35:39.837Z,1006.04
2017-11-18T02:36:39.830Z,1006.00
2017-11-18T02:37:39.824Z,1005.95
2017-11-18T02:38:39.824Z,1005.89
2017-11-18T02:39:39.817Z,1005.92
2017-11-18T02:40:39.893Z,1005.89
2017-11-18T02:41:39.794Z,1005.91
2017-11-18T02:42:39.790Z,1005.90
2017-11-18T02:43:39.776Z,1005.90
2017-11-18T02:44:39.769Z,1005.88
2017-11-18T02:45:39.762Z,1005.88
2017-11-18T02:46:39.756Z,1005.83
2017-11-18T02:47:40.594Z,1005.89
2017-11-18T02:48:39.742Z,1005.88
2017-11-18T02:49:39.738Z,1005.88
2017-11-18T02:50:39.727Z,1005.88
2017-11-18T02:51:39.721Z,1005.86
2017-11-18T02:52:39.713Z,1005.84
2017-11-18T02:53:39.706Z,1005.84
2017-11-18T02:54:39.711Z,1005.80
2017-11-18T02:55:39.700Z,1005.78
2017-11-18T02:56:39.685Z,1005.79
2017-11-18T02:57:39.688Z,1005.84
2017-11-18T02:58:39.671Z,1005.77
2017-11-18T02:59:39.664Z,1005.77
2017-11-18T03:00:39.657Z,1005.76
2017-11-18T03:01:39.649Z,1005.70
2017-11-18T03:02:39.642Z,1005.73
2017-11-18T03:03:39.649Z,1005.76
2017-11-18T03:04:39.630Z,1005.69
2017-11-18T03:05:39.623Z,1005.72
2017-11-18T03:06:39.616Z,1005.71
2017-11-18T03:07:39.609Z,1005.69
2017-11-18T03:08:39.600Z,1005.70
2017-11-18T03:09:39.594Z,1005.77
2017-11-18T03:10:39.586Z,1005.75
2017-11-18T03:11:39.580Z,1005.79
2017-11-18T03:12:39.577Z,1005.78
2017-11-18T03:13:39.566Z,1005.77
2017-11-18T03:14:39.563Z,1005.75
2017-11-18T03:15:39.553Z,1005.76
2017-11-18T03:16:39.546Z,1005.70
2017-11-18T03:17:39.540Z,1005.67
2017-11-18T03:18:39.531Z,1005.64
2017-11-18T03:19:39.523Z,1005.65
2017-11-18T03:20:39.531Z,1005.64
2017-11-18T03:21:39.510Z,1005.62
2017-11-18T03:22:39.503Z,1005.64
2017-11-18T03:23:39.496Z,1005.59
2017-11-18T03:24:39.489Z,1005.61
2017-11-18T03:25:39.481Z,1005.60
2017-11-18T03:26:39.474Z,1005.58
2017-11-18T03:27:39.467Z,1005.56
2017-11-18T03:28:39.462Z,1005.54
2017-11-18T03:29:39.455Z,1005.54
2017-11-18T03:30:39.448Z,1005.50
2017-11-18T03:31:39.445Z,1005.50
2017-11-18T03:32:39.430Z,1005.48
2017-11-18T03:33:39.425Z,1005.48
2017-11-18T03:34:39.419Z,1005.48
2017-11-18T03:35:39.409Z,1005.46
2017-11-18T03:36:39.404Z,1005.46
2017-11-18T03:37:39.396Z,1005.49
2017-11-18T03:38:39.389Z,1005.52
2017-11-18T03:39:39.382Z,1005.47
2017-11-18T03:40:39.374Z,1005.48
2017-11-18T03:41:39.375Z,1005.47
2017-11-18T03:42:39.360Z,1005.46
2017-11-18T03:43:39.390Z,1005.40
2017-11-18T03:44:39.366Z,1005.42
2017-11-18T03:45:39.340Z,1005.42
2017-11-18T03:46:39.333Z,1005.38
2017-11-18T03:47:39.323Z,1005.39
2017-11-18T03:48:39.353Z,1005.34
2017-11-18T03:49:39.316Z,1005.34
2017-11-18T03:50:39.304Z,1005.33
2017-11-18T03:51:39.298Z,1005.27
2017-11-18T03:52:39.288Z,1005.27
2017-11-18T03:53:39.281Z,1005.29
2017-11-18T03:54:39.274Z,1005.32
2017-11-18T03:55:39.266Z,1005.31
2017-11-18T03:56:39.259Z,1005.31
2017-11-18T03:57:39.256Z,1005.32
2017-11-18T03:58:39.245Z,1005.31
2017-11-18T03:59:39.252Z,1005.29
2017-11-18T04:00:39.231Z,1005.26
2017-11-18T04:01:39.226Z,1005.25
2017-11-18T04:02:39.220Z,1005.27
2017-11-18T04:03:39.212Z,1005.20
2017-11-18T04:04:39.203Z,1005.18
2017-11-18T04:05:39.203Z,1005.15
2017-11-18T04:06:39.190Z,1005.13
2017-11-18T04:07:39.182Z,1005.09
2017-11-18T04:08:39.174Z,1005.06
2017-11-18T04:09:39.167Z,1005.06
2017-11-18T04:10:39.164Z,1005.03
2017-11-18T04:11:39.155Z,1005.03
2017-11-18T04:12:39.147Z,1004.98
2017-11-18T04:13:39.139Z,1005.01
2017-11-18T04:14:39.131Z,1004.96
2017-11-18T04:15:39.124Z,1004.95
2017-11-18T04:16:39.121Z,1004.93
2017-11-18T04:17:39.119Z,1004.92
2017-11-18T04:18:39.137Z,1004.87
2017-11-18T04:19:39.757Z,1004.84
2017-11-18T04:20:39.089Z,1004.85
2017-11-18T04:21:39.081Z,1004.83
2017-11-18T04:22:39.075Z,1004.85
2017-11-18T04:23:39.068Z,1004.89
2017-11-18T04:24:39.059Z,1004.83
2017-11-18T04:25:39.061Z,1004.87
2017-11-18T04:26:39.048Z,1004.79
2017-11-18T04:27:39.038Z,1004.80
2017-11-18T04:28:39.032Z,1004.85
2017-11-18T04:29:39.024Z,1004.83
2017-11-18T04:30:39.022Z,1004.83
2017-11-18T04:31:39.025Z,1004.86
2017-11-18T04:32:39.001Z,1004.87
2017-11-18T04:33:38.999Z,1004.85
2017-11-18T04:34:38.988Z,1004.80
2017-11-18T04:35:40.117Z,1004.77
2017-11-18T04:36:38.973Z,1004.82
2017-11-18T04:37:38.967Z,1004.71
2017-11-18T04:38:38.960Z,1004.75
2017-11-18T04:39:38.954Z,1004.67
2017-11-18T04:40:38.947Z,1004.71
2017-11-18T04:41:38.939Z,1004.70
2017-11-18T04:42:38.931Z,1004.68
2017-11-18T04:43:38.923Z,1004.69
2017-11-18T04:44:38.916Z,1004.70
2017-11-18T04:45:38.910Z,1004.72
2017-11-18T04:46:38.902Z,1004.68
2017-11-18T04:47:38.895Z,1004.66
2017-11-18T04:48:38.896Z,1004.64
2017-11-18T04:49:38.880Z,1004.62
2017-11-18T04:50:38.873Z,1004.62
2017-11-18T04:51:38.865Z,1004.63
2017-11-18T04:52:38.856Z,1004.60
2017-11-18T04:53:38.853Z,1004.60
2017-11-18T04:54:38.843Z,1004.62
2017-11-18T04:55:38.836Z,1004.58
2017-11-18T04:56:38.836Z,1004.61
2017-11-18T04:57:38.819Z,1004.57
2017-11-18T04:58:38.815Z,1004.49
2017-11-18T04:59:38.806Z,1004.51
2017-11-18T05:00:38.800Z,1004.54
2017-11-18T05:01:38.790Z,1004.53
2017-11-18T05:02:38.784Z,1004.54
2017-11-18T05:03:38.776Z,1004.53
2017-11-18T05:04:38.768Z,1004.52
2017-11-18T05:05:38.762Z,1004.53
2017-11-18T05:06:38.754Z,1004.56
2017-11-18T05:07:38.747Z,1004.50
2017-11-18T05:08:38.743Z,1004.50
2017-11-18T05:09:38.731Z,1004.53
2017-11-18T05:10:38.721Z,1004.52
2017-11-18T05:11:38.715Z,1004.53
2017-11-18T05:12:38.710Z,1004.55
2017-11-18T05:13:38.701Z,1004.59
2017-11-18T05:14:38.694Z,1004.58
2017-11-18T05:15:38.684Z,1004.58
2017-11-18T05:16:38.677Z,1004.65
2017-11-18T05:17:38.670Z,1004.66
2017-11-18T05:18:38.662Z,1004.67
2017-11-18T05:19:38.655Z,1004.66
2017-11-18T05:20:38.646Z,1004.69
2017-11-18T05:21:38.639Z,1004.69
2017-11-18T05:22:38.633Z,1004.68
2017-11-18T05:23:38.624Z,1004.71
2017-11-18T05:24:38.617Z,1004.67
2017-11-18T05:25:38.610Z,1004.66
2017-11-18T05:26:38.601Z,1004.65
2017-11-18T05:27:38.595Z,1004.60
2017-11-18T05:28:38.587Z,1004.60
2017-11-18T05:29:38.580Z,1004.58
2017-11-18T05:30:38.571Z,1004.55
2017-11-18T05:31:38.565Z,1004.48
2017-11-18T05:32:38.556Z,1004.51
2017-11-18T05:33:38.548Z,1004.56
2017-11-18T05:34:38.541Z,1004.53
2017-11-18T05:35:38.534Z,1004.51
2017-11-18T05:36:38.525Z,1004.48
2017-11-18T05:37:38.518Z,1004.43
2017-11-18T05:38:38.514Z,1004.44
2017-11-18T05:39:38.503Z,1004.41
2017-11-18T05:40:38.494Z,1004.42
2017-11-18T05:41:38.487Z,1004.42
2017-11-18T05:42:38.481Z,1004.36
2017-11-18T05:43:38.475Z,1004.31
2017-11-18T05:44:38.467Z,1004.35
2017-11-18T05:45:38.458Z,1004.32
2017-11-18T05:46:38.449Z,1004.30
2017-11-18T05:47:38.443Z,1004.32
2017-11-18T05:48:38.448Z,1004.26
2017-11-18T05:49:38.426Z,1004.27
2017-11-18T05:50:38.418Z,1004.22
2017-11-18T05:51:38.920Z,1004.27
2017-11-18T05:52:38.402Z,1004.32
2017-11-18T05:53:38.399Z,1004.28
2017-11-18T05:54:38.388Z,1004.28
2017-11-18T05:55:38.381Z,1004.30
2017-11-18T05:56:38.373Z,1004.31
2017-11-18T05:57:38.388Z,1004.30
2017-11-18T05:58:38.365Z,1004.28
2017-11-18T05:59:38.361Z,1004.26
2017-11-18T06:00:38.341Z,1004.25
2017-11-18T06:01:38.335Z,1004.28
2017-11-18T06:02:38.329Z,1004.28
2017-11-18T06:03:38.322Z,1004.26
2017-11-18T06:04:38.312Z,1004.26
2017-11-18T06:05:38.304Z,1004.31
2017-11-18T06:06:38.295Z,1004.27
2017-11-18T06:07:38.287Z,1004.23
2017-11-18T06:08:38.280Z,1004.22
2017-11-18T06:09:38.278Z,1004.20
2017-11-18T06:10:38.265Z,1004.21
2017-11-18T06:11:38.256Z,1004.21
2017-11-18T06:12:38.248Z,1004.17
2017-11-18T06:13:38.244Z,1004.20
2017-11-18T06:14:38.233Z,1004.21
2017-11-18T06:15:38.225Z,1004.13
2017-11-18T06:16:38.218Z,1004.12
2017-11-18T06:17:38.210Z,1004.17
2017-11-18T06:18:38.203Z,1004.12
2017-11-18T06:19:38.196Z,1004.11
2017-11-18T06:20:38.201Z,1004.11
2017-11-18T06:21:38.181Z,1004.11
2017-11-18T06:22:38.171Z,1004.13
2017-11-18T06:23:38.162Z,1004.17
2017-11-18T06:24:38.154Z,1004.16
2017-11-18T06:25:38.146Z,1004.12
2017-11-18T06:26:38.139Z,1004.16
2017-11-18T06:27:38.129Z,1004.14
2017-11-18T06:28:38.125Z,1004.12
2017-11-18T06:29:38.121Z,1004.15
2017-11-18T06:30:38.112Z,1004.15
2017-11-18T06:31:38.099Z,1004.10
2017-11-18T06:32:38.092Z,1004.07
2017-11-18T06:33:38.086Z,1004.05
2017-11-18T06:34:38.076Z,1004.01
2017-11-18T06:35:38.072Z,1003.98
2017-11-18T06:36:38.058Z,1003.95
2017-11-18T06:37:38.053Z,1003.97
2017-11-18T06:38:38.044Z,1003.99
2017-11-18T06:39:38.037Z,1003.96
2017-11-18T06:40:38.029Z,1003.94
2017-11-18T06:41:38.019Z,1003.89
2017-11-18T06:42:38.012Z,1003.91
2017-11-18T06:43:38.002Z,1003.85
2017-11-18T06:44:38.002Z,1003.85
2017-11-18T06:45:37.987Z,1003.86
2017-11-18T06:46:37.980Z,1003.86
2017-11-18T06:47:37.970Z,1003.90
2017-11-18T06:48:37.964Z,1003.91
2017-11-18T06:49:37.954Z,1003.91
2017-11-18T06:50:37.949Z,1003.90
2017-11-18T06:51:37.938Z,1003.93
2017-11-18T06:52:37.929Z,1003.93
2017-11-18T06:53:37.920Z,1003.97
2017-11-18T06:54:37.915Z,1003.95
2017-11-18T06:55:37.905Z,1004.00
2017-11-18T06:56:37.902Z,1003.98
2017-11-18T06:57:37.897Z,1003.98
2017-11-18T06:58:37.882Z,1003.97
2017-11-18T06:59:37.872Z,1004.01
2017-11-18T07:00:37.864Z,1004.01
2017-11-18T07:01:37.855Z,1004.02
2017-11-18T07:02:37.851Z,1004.04
2017-11-18T07:03:37.838Z,1004.06
2017-11-18T07:04:37.837Z,1004.09
2017-11-18T07:05:37.823Z,1004.05
2017-11-18T07:06:37.824Z,1004.04
2017-11-18T07:07:37.806Z,1003.97
2017-11-18T07:08:37.798Z,1004.02
2017-11-18T07:09:37.803Z,1004.03
2017-11-18T07:10:37.783Z,1004.03
2017-11-18T07:11:37.772Z,1003.99
2017-11-18T07:12:37.766Z,1004.00
2017-11-18T07:13:37.760Z,1004.00
2017-11-18T07:14:37.758Z,1003.94
2017-11-18T07:15:37.743Z,1003.99
2017-11-18T07:16:37.734Z,1004.00
2017-11-18T07:17:37.730Z,1004.02
2017-11-18T07:18:37.718Z,1003.97
2017-11-18T07:19:37.710Z,1003.94
2017-11-18T07:20:37.700Z,1003.96
2017-11-18T07:21:37.694Z,1003.96
2017-11-18T07:22:37.686Z,1003.96
2017-11-18T07:23:38.059Z,1003.97
2017-11-18T07:24:37.669Z,1003.98
2017-11-18T07:25:37.667Z,1003.96
2017-11-18T07:26:37.654Z,1003.94
2017-11-18T07:27:37.646Z,1003.96
2017-11-18T07:28:37.640Z,1003.95
2017-11-18T07:29:37.631Z,1003.96
2017-11-18T07:30:37.633Z,1003.91
2017-11-18T07:31:37.615Z,1003.91
2017-11-18T07:32:37.606Z,1003.87
2017-11-18T07:33:37.599Z,1003.92
2017-11-18T07:34:37.590Z,1003.92
2017-11-18T07:35:37.587Z,1003.93
2017-11-18T07:36:37.575Z,1003.91
2017-11-18T07:37:37.568Z,1003.84
2017-11-18T07:38:37.560Z,1003.86
2017-11-18T07:39:37.562Z,1003.84
2017-11-18T07:40:37.545Z,1003.85
2017-11-18T07:41:37.537Z,1003.80
2017-11-18T07:42:37.531Z,1003.82
2017-11-18T07:43:37.521Z,1003.77
2017-11-18T07:44:37.516Z,1003.79
2017-11-18T07:45:37.505Z,1003.81
2017-11-18T07:46:37.498Z,1003.84
2017-11-18T07:47:37.489Z,1003.79
2017-11-18T07:48:37.480Z,1003.75
2017-11-18T07:49:37.476Z,1003.77
2017-11-18T07:50:37.470Z,1003.78
2017-11-18T07:51:37.459Z,1003.81
2017-11-18T07:52:37.451Z,1003.77
2017-11-18T07:53:37.442Z,1003.80
2017-11-18T07:54:37.436Z,1003.76
2017-11-18T07:55:37.427Z,1003.80
2017-11-18T07:56:37.421Z,1003.80
2017-11-18T07:57:37.411Z,1003.74
2017-11-18T07:58:37.403Z,1003.78
2017-11-18T07:59:37.395Z,1003.72
2017-11-18T08:00:37.388Z,1003.65
2017-11-18T08:01:37.381Z,1003.58
2017-11-18T08:02:37.375Z,1003.65
2017-11-18T08:03:37.367Z,1003.62
2017-11-18T08:04:37.357Z,1003.60
2017-11-18T08:05:37.352Z,1003.56
2017-11-18T08:06:37.342Z,1003.53
2017-11-18T08:07:37.335Z,1003.52
2017-11-18T08:08:37.329Z,1003.50
2017-11-18T08:09:37.320Z,1003.59
2017-11-18T08:10:37.311Z,1003.55
2017-11-18T08:11:37.304Z,1003.54
2017-11-18T08:12:37.298Z,1003.56
2017-11-18T08:13:37.288Z,1003.51
2017-11-18T08:14:37.295Z,1003.49
2017-11-18T08:15:37.273Z,1003.49
2017-11-18T08:16:37.264Z,1003.47
2017-11-18T08:17:37.259Z,1003.48
2017-11-18T08:18:37.250Z,1003.40
2017-11-18T08:19:37.243Z,1003.43
2017-11-18T08:20:37.233Z,1003.40
2017-11-18T08:21:37.226Z,1003.40
2017-11-18T08:22:37.220Z,1003.36
2017-11-18T08:23:37.211Z,1003.40
2017-11-18T08:24:37.203Z,1003.35
2017-11-18T08:25:37.195Z,1003.38
2017-11-18T08:26:37.187Z,1003.37
2017-11-18T08:27:37.182Z,1003.37
2017-11-18T08:28:37.173Z,1003.36
2017-11-18T08:29:37.166Z,1003.38
2017-11-18T08:30:37.159Z,1003.33
2017-11-18T08:31:37.151Z,1003.35
2017-11-18T08:32:37.143Z,1003.35
2017-11-18T08:33:37.137Z,1003.35
2017-11-18T08:34:37.128Z,1003.34
2017-11-18T08:35:37.120Z,1003.26
2017-11-18T08:36:37.116Z,1003.32
2017-11-18T08:37:37.114Z,1003.33
2017-11-18T08:38:37.098Z,1003.35
2017-11-18T08:39:37.089Z,1003.28
2017-11-18T08:40:37.083Z,1003.28
2017-11-18T08:41:37.081Z,1003.33
2017-11-18T08:42:37.068Z,1003.37
2017-11-18T08:43:37.059Z,1003.40
2017-11-18T08:44:37.054Z,1003.39
2017-11-18T08:45:37.045Z,1003.35
2017-11-18T08:46:37.041Z,1003.30
2017-11-18T08:47:37.037Z,1003.32
2017-11-18T08:48:37.025Z,1003.27
2017-11-18T08:49:37.015Z,1003.22
2017-11-18T08:50:37.011Z,1003.18
2017-11-18T08:51:37.002Z,1003.20
2017-11-18T08:52:36.994Z,1003.15
2017-11-18T08:53:36.988Z,1003.13
2017-11-18T08:54:36.982Z,1003.16
2017-11-18T08:55:37.225Z,1003.15
2017-11-18T08:56:36.965Z,1003.15
2017-11-18T08:57:36.959Z,1003.16
2017-11-18T08:58:36.955Z,1003.15
2017-11-18T08:59:36.950Z,1003.14
2017-11-18T09:00:36.938Z,1003.13
2017-11-18T09:01:36.932Z,1003.07
2017-11-18T09:02:36.927Z,1003.07
2017-11-18T09:03:36.926Z,1003.10
2017-11-18T09:04:36.910Z,1003.05
2017-11-18T09:05:37.179Z,1003.04
2017-11-18T09:06:37.015Z,1003.07
2017-11-18T09:07:36.889Z,1003.02
2017-11-18T09:08:36.885Z,1003.02
2017-11-18T09:09:36.877Z,1003.03
2017-11-18T09:10:36.871Z,1003.03
2017-11-18T09:11:36.864Z,1003.07
2017-11-18T09:12:36.857Z,1003.06
2017-11-18T09:13:36.852Z,1003.02
2017-11-18T09:14:36.848Z,1003.07
2017-11-18T09:15:36.837Z,1003.02
2017-11-18T09:16:36.831Z,1002.96
2017-11-18T09:17:36.824Z,1003.05
2017-11-18T09:18:36.816Z,1003.01
2017-11-18T09:19:36.810Z,1003.02
2017-11-18T09:20:36.804Z,1003.05
2017-11-18T09:21:36.797Z,1003.05
2017-11-18T09:22:36.792Z,1003.08
2017-11-18T09:23:36.785Z,1003.06
2017-11-18T09:24:36.780Z,1003.00
2017-11-18T09:25:36.771Z,1003.03
2017-11-18T09:26:37.617Z,1003.01
2017-11-18T09:27:36.757Z,1003.03
2017-11-18T09:28:37.108Z,1003.05
2017-11-18T09:29:36.745Z,1003.05
2017-11-18T09:30:36.757Z,1003.05
2017-11-18T09:31:36.732Z,1003.00
2017-11-18T09:32:36.735Z,1002.96
2017-11-18T09:33:36.720Z,1002.94
2017-11-18T09:34:36.714Z,1002.96
2017-11-18T09:35:36.707Z,1002.99
2017-11-18T09:36:36.702Z,1003.00
2017-11-18T09:37:36.693Z,1002.98
2017-11-18T09:38:36.708Z,1002.89
2017-11-18T09:39:36.679Z,1002.87
2017-11-18T09:40:36.675Z,1002.87
2017-11-18T09:41:36.668Z,1002.82
2017-11-18T09:42:36.663Z,1002.83
2017-11-18T09:43:36.655Z,1002.79
2017-11-18T09:44:36.649Z,1002.78
2017-11-18T09:45:36.642Z,1002.77
2017-11-18T09:46:36.638Z,1002.73
2017-11-18T09:47:36.630Z,1002.77
2017-11-18T09:48:36.623Z,1002.75
2017-11-18T09:49:36.617Z,1002.74
2017-11-18T09:50:36.611Z,1002.71
2017-11-18T09:51:36.605Z,1002.69
2017-11-18T09:52:36.599Z,1002.72
2017-11-18T09:53:36.592Z,1002.71
2017-11-18T09:54:36.598Z,1002.75
2017-11-18T09:55:36.580Z,1002.71
2017-11-18T09:56:36.573Z,1002.68
2017-11-18T09:57:36.568Z,1002.68
2017-11-18T09:58:36.562Z,1002.64
2017-11-18T09:59:36.554Z,1002.62
2017-11-18T10:00:36.548Z,1002.53
2017-11-18T10:01:36.542Z,1002.54
2017-11-18T10:02:36.542Z,1002.49
2017-11-18T10:03:36.533Z,1002.50
2017-11-18T10:04:36.524Z,1002.54
2017-11-18T10:05:36.517Z,1002.48
2017-11-18T10:06:36.514Z,1002.48
2017-11-18T10:07:36.506Z,1002.52
2017-11-18T10:08:36.501Z,1002.47
2017-11-18T10:09:36.500Z,1002.47
2017-11-18T10:10:36.491Z,1002.44
2017-11-18T10:11:36.483Z,1002.44
2017-11-18T10:12:36.476Z,1002.43
2017-11-18T10:13:36.471Z,1002.39
2017-11-18T10:14:36.471Z,1002.34
2017-11-18T10:15:36.459Z,1002.36
2017-11-18T10:16:36.451Z,1002.36
2017-11-18T10:17:36.446Z,1002.37
2017-11-18T10:18:36.441Z,1002.34
2017-11-18T10:19:36.435Z,1002.36
2017-11-18T10:20:36.425Z,1002.37
2017-11-18T10:21:36.420Z,1002.26
2017-11-18T10:22:36.423Z,1002.26
2017-11-18T10:23:36.408Z,1002.25
2017-11-18T10:24:36.403Z,1002.23
2017-11-18T10:25:36.396Z,1002.19
2017-11-18T10:26:36.390Z,1002.21
2017-11-18T10:27:36.456Z,1002.17
2017-11-18T10:28:36.380Z,1002.15
2017-11-18T10:29:36.371Z,1002.14
2017-11-18T10:30:36.364Z,1002.13
2017-11-18T10:31:36.357Z,1002.10
2017-11-18T10:32:36.354Z,1002.03
2017-11-18T10:33:36.345Z,1002.05
2017-11-18T10:34:36.341Z,1002.03
2017-11-18T10:35:36.335Z,1002.04
2017-11-18T10:36:36.333Z,1002.00
2017-11-18T10:37:36.321Z,1001.95
2017-11-18T10:38:36.317Z,1002.01
2017-11-18T10:39:36.317Z,1001.89
2017-11-18T10:40:36.847Z,1001.91
2017-11-18T10:41:36.298Z,1001.93
2017-11-18T10:42:36.292Z,1001.91
2017-11-18T10:43:36.285Z,1001.88
2017-11-18T10:44:36.334Z,1001.88
2017-11-18T10:45:36.272Z,1001.90
2017-11-18T10:46:36.267Z,1001.80
2017-11-18T10:47:36.260Z,1001.77
2017-11-18T10:48:36.255Z,1001.80
2017-11-18T10:49:36.248Z,1001.79
2017-11-18T10:50:36.241Z,1001.79
2017-11-18T10:51:36.235Z,1001.79
2017-11-18T10:52:36.230Z,1001.78
2017-11-18T10:53:36.231Z,1001.77
2017-11-18T10:54:36.221Z,1001.75
2017-11-18T10:55:36.211Z,1001.70
2017-11-18T10:56:36.208Z,1001.65
2017-11-18T10:57:36.198Z,1001.60
2017-11-18T10:58:36.891Z,1001.65
2017-11-18T10:59:36.193Z,1001.58
2017-11-18T11:00:36.188Z,1001.57
2017-11-18T11:01:36.174Z,1001.59
2017-11-18T11:02:36.170Z,1001.58
2017-11-18T11:03:36.162Z,1001.58
2017-11-18T11:04:36.157Z,1001.55
2017-11-18T11:05:36.150Z,1001.55
2017-11-18T11:06:36.145Z,1001.61
2017-11-18T11:07:36.141Z,1001.55
2017-11-18T11:08:36.133Z,1001.44
2017-11-18T11:09:36.129Z,1001.48
2017-11-18T11:10:36.123Z,1001.44
2017-11-18T11:11:36.115Z,1001.50
2017-11-18T11:12:36.112Z,1001.48
2017-11-18T11:13:36.102Z,1001.42
2017-11-18T11:14:36.105Z,1001.42
2017-11-18T11:15:36.095Z,1001.40
2017-11-18T11:16:36.084Z,1001.43
2017-11-18T11:17:36.125Z,1001.29
2017-11-18T11:18:36.095Z,1001.30
2017-11-18T11:19:36.063Z,1001.22
2017-11-18T11:20:36.061Z,1001.21
2017-11-18T11:21:36.149Z,1001.18
2017-11-18T11:22:36.047Z,1001.20
2017-11-18T11:23:36.041Z,1001.15
2017-11-18T11:24:36.048Z,1001.15
2017-11-18T11:25:36.029Z,1001.12
2017-11-18T11:26:36.141Z,1001.19
2017-11-18T11:27:36.048Z,1001.15
2017-11-18T11:28:36.012Z,1001.15
2017-11-18T11:29:36.006Z,1001.17
2017-11-18T11:30:36.000Z,1001.11
2017-11-18T11:31:35.994Z,1001.11
2017-11-18T11:32:35.989Z,1000.99
2017-11-18T11:33:35.983Z,1000.97
2017-11-18T11:34:35.977Z,1001.01
2017-11-18T11:35:35.970Z,1000.99
2017-11-18T11:36:35.973Z,1000.92
2017-11-18T11:37:35.969Z,1000.88
2017-11-18T11:38:35.952Z,1000.86
2017-11-18T11:39:35.948Z,1000.87
2017-11-18T11:40:35.941Z,1000.85
2017-11-18T11:41:35.936Z,1000.78
2017-11-18T11:42:35.932Z,1000.77
2017-11-18T11:43:35.924Z,1000.75
2017-11-18T11:44:35.918Z,1000.70
2017-11-18T11:45:35.988Z,1000.72
2017-11-18T11:46:36.569Z,1000.76
2017-11-18T11:47:35.902Z,1000.71
2017-11-18T11:48:35.896Z,1000.70
2017-11-18T11:49:35.977Z,1000.72
2017-11-18T11:50:35.883Z,1000.69
2017-11-18T11:51:35.877Z,1000.62
2017-11-18T11:52:35.873Z,1000.50
2017-11-18T11:53:35.869Z,1000.59
2017-11-18T11:54:35.858Z,1000.59
2017-11-18T11:55:35.852Z,1000.69
2017-11-18T11:56:35.849Z,1000.66
2017-11-18T11:57:35.842Z,1000.70
2017-11-18T11:58:35.835Z,1000.70
2017-11-18T11:59:35.829Z,1000.68
2017-11-18T12:00:35.830Z,1000.62
2017-11-18T12:01:35.818Z,1000.70
2017-11-18T12:02:35.812Z,1000.71
2017-11-18T12:03:35.806Z,1000.67
2017-11-18T12:04:35.807Z,1000.68
2017-11-18T12:05:35.795Z,1000.68